createdAt,value
2018-11-11T00:04:09.844Z,49.37
2018-11-11T00:09:12.935Z,46.53
2018-11-11T00:14:16.045Z,47.73
2018-11-11T00:19:19.120Z,50.70
2018-11-11T00:24:22.220Z,47.40
2018-11-11T00:29:25.324Z,46.93
2018-11-11T00:34:28.397Z,45.20
2018-11-11T00:39:31.559Z,58.93
2018-11-11T00:44:34.628Z,55.30
2018-11-11T00:49:37.720Z,58.13
2018-11-11T00:54:40.815Z,56.43
2018-11-11T00:59:43.900Z,54.87
2018-11-11T01:04:47.002Z,50.37
2018-11-11T01:09:50.112Z,55.80
2018-11-11T01:14:54.367Z,53.27
2018-11-11T01:19:57.451Z,60.53
2018-11-11T01:25:00.528Z,54.87
2018-11-11T01:30:03.665Z,58.13
2018-11-11T01:35:08.434Z,58.83
2018-11-11T01:40:11.513Z,53.47
2018-11-11T01:45:17.224Z,56.27
2018-11-11T01:50:20.303Z,48.30
2018-11-11T01:55:23.384Z,55.40
2018-11-11T02:00:26.489Z,58.17
2018-11-11T02:05:29.586Z,56.57
2018-11-11T02:10:32.691Z,61.50
2018-11-11T02:15:35.791Z,54.17
2018-11-11T02:20:38.925Z,60.43
2018-11-11T02:25:42.039Z,61.47
2018-11-11T02:30:59.771Z,54.77
2018-11-11T02:36:02.859Z,58.23
2018-11-11T02:41:06.540Z,51.03
2018-11-11T02:46:09.657Z,55.07
2018-11-11T02:51:12.793Z,51.27
2018-11-11T02:56:15.909Z,54.20
2018-11-11T03:01:19.027Z,58.53
2018-11-11T03:06:22.141Z,54.80
2018-11-11T03:11:25.268Z,57.67
2018-11-11T03:16:28.354Z,48.87
2018-11-11T03:21:31.713Z,49.17
2018-11-11T03:26:35.007Z,50.77
2018-11-11T03:31:38.119Z,51.53
2018-11-11T03:36:41.233Z,54.80
2018-11-11T03:41:44.334Z,59.83
2018-11-11T03:46:47.441Z,56.73
2018-11-11T03:51:50.560Z,59.73
2018-11-11T03:56:53.757Z,51.33
2018-11-11T04:02:15.701Z,46.97
2018-11-11T04:07:18.797Z,52.73
2018-11-11T04:12:21.886Z,59.23
2018-11-11T04:17:24.971Z,58.97
2018-11-11T04:22:28.092Z,57.90
2018-11-11T04:27:31.214Z,55.40
2018-11-11T04:32:34.316Z,56.87
2018-11-11T04:37:37.407Z,51.87
2018-11-11T04:42:40.533Z,58.10
2018-11-11T04:47:44.466Z,56.83
2018-11-11T04:52:47.774Z,58.30
2018-11-11T04:57:50.891Z,59.73
2018-11-11T05:02:53.983Z,54.03
2018-11-11T05:07:57.112Z,54.60
2018-11-11T05:13:00.271Z,55.50
2018-11-11T05:18:03.414Z,53.63
2018-11-11T05:23:06.535Z,55.77
2018-11-11T05:28:09.667Z,55.37
2018-11-11T05:38:48.928Z,54.80
2018-11-11T05:43:52.024Z,58.33
2018-11-11T05:48:55.086Z,56.73
2018-11-11T05:53:58.169Z,52.07
2018-11-11T05:59:01.258Z,50.47
2018-11-11T06:04:04.380Z,52.50
2018-11-11T06:09:09.120Z,50.30
2018-11-11T06:14:12.205Z,54.00
2018-11-11T06:19:15.316Z,53.13
2018-11-11T06:24:18.425Z,52.23
2018-11-11T06:29:21.507Z,50.80
2018-11-11T06:34:24.621Z,51.67
2018-11-11T06:39:27.689Z,60.30
2018-11-11T06:44:30.801Z,44.97
2018-11-11T06:49:33.886Z,49.00
2018-11-11T06:54:36.982Z,46.40
2018-11-11T06:59:40.284Z,51.53
2018-11-11T07:04:43.390Z,45.27
2018-11-11T07:09:46.525Z,43.23
2018-11-11T07:14:49.640Z,44.73
2018-11-11T07:19:52.794Z,50.67
2018-11-11T07:24:55.890Z,48.07
2018-11-11T07:29:58.989Z,40.73
2018-11-11T07:35:02.131Z,51.67
2018-11-11T07:40:07.074Z,48.80
2018-11-11T07:45:10.205Z,46.43
2018-11-11T07:50:13.325Z,47.07
2018-11-11T07:55:16.492Z,49.07
2018-11-11T08:00:19.564Z,44.67
2018-11-11T08:05:22.684Z,48.13
2018-11-11T08:10:37.381Z,48.07
2018-11-11T08:15:40.561Z,48.53
2018-11-11T08:20:43.690Z,42.37
2018-11-11T08:25:47.021Z,46.30
2018-11-11T08:30:50.319Z,38.67
2018-11-11T08:35:53.460Z,47.67
2018-11-11T08:40:56.565Z,39.60
2018-11-11T08:45:59.676Z,42.47
2018-11-11T08:51:02.782Z,45.27
2018-11-11T08:56:05.926Z,43.80
2018-11-11T09:01:09.012Z,46.90
2018-11-11T09:06:12.139Z,46.80
2018-11-11T09:11:15.288Z,41.07
2018-11-11T09:16:18.616Z,41.57
2018-11-11T09:21:21.741Z,44.37
2018-11-11T09:26:24.821Z,39.27
2018-11-11T09:31:27.893Z,39.20
2018-11-11T09:36:31.185Z,39.43
2018-11-11T09:41:34.334Z,37.03
2018-11-11T09:46:37.464Z,42.33
2018-11-11T09:51:40.612Z,42.07
2018-11-11T09:56:43.714Z,41.13
2018-11-11T10:01:46.840Z,43.97
2018-11-11T10:06:56.255Z,41.37
2018-11-11T10:12:09.468Z,41.57
2018-11-11T10:17:15.096Z,38.10
2018-11-11T10:22:22.698Z,40.00
2018-11-11T10:27:32.467Z,38.80
2018-11-11T10:32:52.519Z,39.03
2018-11-11T10:38:00.901Z,35.73
2018-11-11T10:43:09.725Z,38.53
2018-11-11T10:48:15.547Z,39.87
2018-11-11T10:53:18.675Z,40.80
2018-11-11T10:58:21.798Z,43.20
2018-11-11T11:03:37.869Z,35.67
2018-11-11T11:08:46.801Z,37.90
2018-11-11T11:13:50.546Z,38.37
2018-11-11T11:18:53.718Z,39.57
2018-11-11T11:23:56.836Z,39.83
2018-11-11T11:28:59.917Z,41.03
2018-11-11T11:34:03.064Z,42.50
2018-11-11T11:39:08.010Z,37.10
2018-11-11T11:44:11.133Z,45.70
2018-11-11T11:49:14.226Z,40.93
2018-11-11T11:54:17.341Z,42.60
2018-11-11T11:59:20.414Z,41.10
2018-11-11T12:04:23.557Z,40.10
2018-11-11T12:09:26.661Z,44.97
2018-11-11T12:14:29.832Z,42.87
2018-11-11T12:19:33.781Z,39.40
2018-11-11T12:24:37.093Z,42.17
2018-11-11T12:29:40.234Z,43.20
2018-11-11T12:34:43.333Z,42.37
2018-11-11T12:39:46.636Z,52.80
2018-11-11T12:44:49.660Z,50.20
2018-11-11T12:49:52.737Z,44.63
2018-11-11T12:54:55.867Z,45.37
2018-11-11T12:59:58.946Z,42.63
2018-11-11T13:05:02.054Z,43.50
2018-11-11T13:10:08.001Z,47.73
2018-11-11T13:15:12.534Z,47.47
2018-11-11T13:20:16.987Z,44.93
2018-11-11T13:25:20.227Z,41.60
2018-11-11T13:30:23.313Z,43.80
2018-11-11T13:35:26.414Z,44.80
2018-11-11T13:40:29.530Z,49.90
2018-11-11T13:45:32.654Z,37.73
2018-11-11T13:50:35.803Z,37.63
2018-11-11T13:55:38.944Z,34.80
2018-11-11T14:00:42.077Z,34.57
2018-11-11T14:05:45.208Z,36.13
2018-11-11T14:10:48.356Z,37.53
2018-11-11T14:15:51.524Z,39.07
2018-11-11T14:20:54.684Z,40.13
2018-11-11T14:25:57.833Z,32.00
2018-11-11T14:31:00.967Z,34.20
2018-11-11T14:36:04.122Z,33.70
2018-11-11T14:41:07.238Z,36.07
2018-11-11T14:46:10.580Z,35.27
2018-11-11T14:51:13.841Z,35.90
2018-11-11T14:56:16.971Z,36.67
2018-11-11T15:01:20.157Z,36.50
2018-11-11T15:06:23.291Z,33.47
2018-11-11T15:11:26.447Z,39.27
2018-11-11T15:16:29.665Z,37.93
2018-11-11T15:21:32.793Z,33.93
2018-11-11T15:26:36.015Z,39.13
2018-11-11T15:31:39.445Z,43.80
2018-11-11T15:36:42.648Z,37.37
2018-11-11T15:41:45.847Z,39.57
2018-11-11T15:46:48.997Z,35.93
2018-11-11T15:51:52.201Z,38.83
2018-11-11T15:56:55.368Z,38.30
2018-11-11T16:01:58.511Z,36.93
2018-11-11T16:07:01.642Z,37.67
2018-11-11T16:12:05.092Z,38.10
2018-11-11T16:17:08.255Z,41.83
2018-11-11T16:22:11.378Z,37.23
2018-11-11T16:27:14.482Z,38.23
2018-11-11T16:32:17.613Z,37.97
2018-11-11T16:37:20.726Z,41.30
2018-11-11T16:42:23.882Z,42.37
2018-11-11T16:47:26.986Z,37.90
2018-11-11T16:52:30.123Z,37.60
2018-11-11T16:57:33.237Z,39.33
2018-11-11T17:02:36.532Z,39.97
2018-11-11T17:07:39.901Z,36.60
2018-11-11T17:12:43.863Z,41.37
2018-11-11T17:17:47.166Z,37.23
2018-11-11T17:22:51.349Z,40.80
2018-11-11T17:27:54.474Z,40.37
2018-11-11T17:32:58.307Z,40.43
2018-11-11T17:38:01.434Z,37.37
2018-11-11T17:43:04.802Z,36.07
2018-11-11T17:48:07.922Z,35.13
2018-11-11T17:53:11.001Z,38.13
2018-11-11T17:58:14.284Z,37.33
2018-11-11T18:03:17.433Z,37.23
2018-11-11T18:08:20.652Z,36.30
2018-11-11T18:13:24.734Z,30.37
2018-11-11T18:18:27.846Z,34.47
2018-11-11T18:23:30.955Z,33.57
2018-11-11T18:28:34.108Z,32.73
2018-11-11T18:33:38.464Z,29.80
2018-11-11T18:38:43.101Z,35.00
2018-11-11T18:43:47.188Z,37.37
2018-11-11T18:48:50.390Z,38.50
2018-11-11T18:53:53.722Z,31.23
2018-11-11T18:58:57.238Z,31.67
2018-11-11T19:04:01.012Z,29.43
2018-11-11T19:09:06.606Z,24.23
2018-11-11T19:14:09.842Z,27.20
2018-11-11T19:19:13.285Z,21.27
2018-11-11T19:24:16.610Z,26.27
2018-11-11T19:29:19.824Z,23.43
2018-11-11T19:34:23.259Z,22.03
2018-11-11T19:39:27.090Z,21.50
2018-11-11T19:44:30.206Z,22.87
2018-11-11T19:49:33.358Z,19.20
2018-11-11T19:54:36.937Z,19.20
2018-11-11T19:59:40.710Z,20.87
2018-11-11T20:04:44.302Z,18.20
2018-11-11T20:09:47.427Z,20.73
2018-11-11T20:14:50.781Z,19.03
2018-11-11T20:19:54.320Z,15.33
2018-11-11T20:24:57.781Z,16.90
2018-11-11T20:30:01.165Z,15.13
2018-11-11T20:35:04.958Z,17.20
2018-11-11T20:40:09.913Z,16.00
2018-11-11T20:45:14.217Z,17.87
2018-11-11T20:50:18.732Z,18.93
2018-11-11T20:55:22.174Z,19.60
2018-11-11T21:00:26.629Z,20.67
2018-11-11T21:05:30.625Z,18.10
2018-11-11T21:10:34.078Z,17.53
2018-11-11T21:15:37.283Z,20.97
2018-11-11T21:20:41.305Z,17.37
2018-11-11T21:25:44.412Z,16.33
2018-11-11T21:30:47.622Z,16.50
2018-11-11T21:35:50.760Z,20.40
2018-11-11T21:40:53.858Z,14.97
2018-11-11T21:45:57.108Z,15.70
2018-11-11T21:51:00.173Z,13.03
2018-11-11T21:56:03.617Z,16.03
2018-11-11T22:01:06.883Z,17.70
2018-11-11T22:06:10.015Z,14.87
2018-11-11T22:11:13.269Z,13.93
2018-11-11T22:16:16.363Z,15.10
2018-11-11T22:21:19.488Z,12.73
2018-11-11T22:26:22.644Z,12.63
2018-11-11T22:31:25.790Z,16.47
2018-11-11T22:36:28.922Z,13.30
2018-11-11T22:41:32.093Z,13.17
2018-11-11T22:46:35.198Z,13.43
2018-11-11T22:51:38.365Z,12.53
2018-11-11T22:56:41.451Z,15.20
2018-11-11T23:01:44.570Z,15.10
2018-11-11T23:06:47.685Z,16.10
2018-11-11T23:11:50.829Z,15.23
2018-11-11T23:16:53.929Z,14.90
2018-11-11T23:21:57.033Z,18.13
2018-11-11T23:27:00.139Z,17.10
2018-11-11T23:32:03.272Z,16.90
2018-11-11T23:37:06.425Z,15.70
2018-11-11T23:42:09.511Z,16.80
2018-11-11T23:47:12.681Z,17.93
2018-11-11T23:52:15.949Z,17.03
2018-11-11T23:57:19.039Z,18.27
